Washington, District of Columbia
Traffic Map
Current Weather Conditions
Washington, District of Columbia
Scattered Clouds
Scattered Clouds
26°
Feels Like: 26°
Wind Chill: 26° Ceiling: Unl
Heat Index: 26° Visibility: 10mi
Dew Point: 12° Wind: 9mph
Humidity: 42% Direction: 310° (NW)
Pressure: 30.02in Gusts: 0mph
Raw Report DataKDCA 241652Z 31008KT 10SM FEW050 SCT250 26/12 A3002 RMK AO2 SLP164 T02610122
Traffic Incident Summary
Active as of:
Severity:
Category:
InformationThere was an issue retrieving the traffic information for this location. Please try a different location or try again shortly.
Advertisements
Track Severe Weather on mobile